sensor_id;sensor_type;location;lat;lon;timestamp;P1;durP1;ratioP1;P2;durP2;ratioP2
39044;SDS011;52192;52.002;5.956;2023-05-10T00:00:11;3.63;;;2.03;;
39044;SDS011;52192;52.002;5.956;2023-05-10T00:02:37;4.30;;;2.30;;
39044;SDS011;52192;52.002;5.956;2023-05-10T00:05:04;6.72;;;2.72;;
39044;SDS011;52192;52.002;5.956;2023-05-10T00:07:30;3.70;;;2.88;;
39044;SDS011;52192;52.002;5.956;2023-05-10T00:09:55;3.33;;;2.40;;
39044;SDS011;52192;52.002;5.956;2023-05-10T00:12:21;5.15;;;2.78;;
39044;SDS011;52192;52.002;5.956;2023-05-10T00:14:47;5.72;;;2.83;;
39044;SDS011;52192;52.002;5.956;2023-05-10T00:17:12;5.55;;;3.25;;
39044;SDS011;52192;52.002;5.956;2023-05-10T00:19:38;5.82;;;2.85;;
39044;SDS011;52192;52.002;5.956;2023-05-10T00:22:04;4.72;;;2.90;;
39044;SDS011;52192;52.002;5.956;2023-05-10T00:24:29;4.55;;;2.97;;
39044;SDS011;52192;52.002;5.956;2023-05-10T00:26:55;8.23;;;3.40;;
39044;SDS011;52192;52.002;5.956;2023-05-10T00:29:20;6.38;;;2.67;;
39044;SDS011;52192;52.002;5.956;2023-05-10T00:31:46;5.50;;;3.30;;
39044;SDS011;52192;52.002;5.956;2023-05-10T00:34:12;3.70;;;2.90;;
39044;SDS011;52192;52.002;5.956;2023-05-10T00:36:38;6.25;;;3.45;;
39044;SDS011;52192;52.002;5.956;2023-05-10T00:39:03;5.50;;;3.53;;
39044;SDS011;52192;52.002;5.956;2023-05-10T00:41:29;7.03;;;4.35;;
39044;SDS011;52192;52.002;5.956;2023-05-10T00:43:58;4.53;;;3.10;;
39044;SDS011;52192;52.002;5.956;2023-05-10T00:46:23;7.47;;;3.97;;
39044;SDS011;52192;52.002;5.956;2023-05-10T00:48:50;10.40;;;5.10;;
39044;SDS011;52192;52.002;5.956;2023-05-10T00:51:17;8.00;;;4.47;;
39044;SDS011;52192;52.002;5.956;2023-05-10T00:53:43;8.13;;;4.38;;
39044;SDS011;52192;52.002;5.956;2023-05-10T00:56:10;10.18;;;5.97;;
39044;SDS011;52192;52.002;5.956;2023-05-10T00:58:37;6.72;;;4.28;;
39044;SDS011;52192;52.002;5.956;2023-05-10T01:01:04;8.32;;;5.25;;
39044;SDS011;52192;52.002;5.956;2023-05-10T01:03:31;8.32;;;4.22;;
39044;SDS011;52192;52.002;5.956;2023-05-10T01:05:57;9.48;;;4.30;;
39044;SDS011;52192;52.002;5.956;2023-05-10T01:08:23;8.35;;;4.47;;
39044;SDS011;52192;52.002;5.956;2023-05-10T01:10:49;9.93;;;5.28;;
39044;SDS011;52192;52.002;5.956;2023-05-10T01:13:30;6.90;;;4.38;;
39044;SDS011;52192;52.002;5.956;2023-05-10T01:15:58;7.43;;;4.70;;
39044;SDS011;52192;52.002;5.956;2023-05-10T01:18:26;8.15;;;4.38;;
39044;SDS011;52192;52.002;5.956;2023-05-10T01:34:42;9.55;;;5.43;;
39044;SDS011;52192;52.002;5.956;2023-05-10T01:37:31;15.75;;;8.60;;
39044;SDS011;52192;52.002;5.956;2023-05-10T01:40:23;13.05;;;6.13;;
39044;SDS011;52192;52.002;5.956;2023-05-10T01:42:59;12.00;;;6.82;;
39044;SDS011;52192;52.002;5.956;2023-05-10T01:45:37;12.50;;;6.45;;
39044;SDS011;52192;52.002;5.956;2023-05-10T01:48:40;16.58;;;8.25;;
39044;SDS011;52192;52.002;5.956;2023-05-10T01:51:13;10.20;;;5.60;;
39044;SDS011;52192;52.002;5.956;2023-05-10T01:53:41;12.82;;;6.80;;
39044;SDS011;52192;52.002;5.956;2023-05-10T01:56:09;14.98;;;6.97;;
39044;SDS011;52192;52.002;5.956;2023-05-10T01:58:37;9.50;;;6.53;;
39044;SDS011;52192;52.002;5.956;2023-05-10T02:01:09;16.33;;;7.40;;
39044;SDS011;52192;52.002;5.956;2023-05-10T02:03:35;14.15;;;7.00;;
39044;SDS011;52192;52.002;5.956;2023-05-10T02:06:03;13.23;;;6.70;;
39044;SDS011;52192;52.002;5.956;2023-05-10T02:08:30;10.68;;;5.22;;
39044;SDS011;52192;52.002;5.956;2023-05-10T02:10:57;10.95;;;5.40;;
39044;SDS011;52192;52.002;5.956;2023-05-10T02:13:24;9.77;;;5.63;;
39044;SDS011;52192;52.002;5.956;2023-05-10T02:15:52;9.30;;;5.75;;
39044;SDS011;52192;52.002;5.956;2023-05-10T02:18:19;9.27;;;5.93;;
39044;SDS011;52192;52.002;5.956;2023-05-10T02:20:47;10.23;;;6.38;;
39044;SDS011;52192;52.002;5.956;2023-05-10T02:23:13;13.18;;;6.97;;
39044;SDS011;52192;52.002;5.956;2023-05-10T02:25:40;11.77;;;6.18;;
39044;SDS011;52192;52.002;5.956;2023-05-10T02:28:08;10.45;;;6.68;;
39044;SDS011;52192;52.002;5.956;2023-05-10T02:30:35;11.00;;;6.60;;
39044;SDS011;52192;52.002;5.956;2023-05-10T02:33:01;8.70;;;4.85;;
39044;SDS011;52192;52.002;5.956;2023-05-10T02:35:29;8.85;;;5.13;;
39044;SDS011;52192;52.002;5.956;2023-05-10T02:37:58;8.93;;;5.72;;
39044;SDS011;52192;52.002;5.956;2023-05-10T02:40:25;11.10;;;5.18;;
39044;SDS011;52192;52.002;5.956;2023-05-10T02:42:52;9.70;;;5.13;;
39044;SDS011;52192;52.002;5.956;2023-05-10T02:45:22;10.20;;;5.18;;
39044;SDS011;52192;52.002;5.956;2023-05-10T02:47:51;12.13;;;6.18;;
39044;SDS011;52192;52.002;5.956;2023-05-10T02:50:17;10.43;;;5.95;;
39044;SDS011;52192;52.002;5.956;2023-05-10T02:52:47;16.60;;;8.35;;
39044;SDS011;52192;52.002;5.956;2023-05-10T02:55:19;14.23;;;8.10;;
39044;SDS011;52192;52.002;5.956;2023-05-10T02:57:55;15.18;;;8.52;;
39044;SDS011;52192;52.002;5.956;2023-05-10T03:00:24;16.65;;;8.73;;
39044;SDS011;52192;52.002;5.956;2023-05-10T03:02:50;12.77;;;7.00;;
39044;SDS011;52192;52.002;5.956;2023-05-10T03:05:16;13.98;;;7.55;;
39044;SDS011;52192;52.002;5.956;2023-05-10T03:07:42;11.50;;;6.22;;
39044;SDS011;52192;52.002;5.956;2023-05-10T03:10:08;9.93;;;7.07;;
39044;SDS011;52192;52.002;5.956;2023-05-10T03:12:46;12.73;;;5.80;;
39044;SDS011;52192;52.002;5.956;2023-05-10T03:18:33;13.20;;;6.28;;
39044;SDS011;52192;52.002;5.956;2023-05-10T03:21:08;14.95;;;8.38;;
39044;SDS011;52192;52.002;5.956;2023-05-10T03:26:08;14.45;;;7.80;;
39044;SDS011;52192;52.002;5.956;2023-05-10T03:28:34;19.27;;;10.88;;
39044;SDS011;52192;52.002;5.956;2023-05-10T03:31:01;19.15;;;10.63;;
39044;SDS011;52192;52.002;5.956;2023-05-10T03:33:29;22.90;;;11.30;;
39044;SDS011;52192;52.002;5.956;2023-05-10T03:35:54;20.80;;;10.32;;
39044;SDS011;52192;52.002;5.956;2023-05-10T03:38:20;20.75;;;8.50;;
39044;SDS011;52192;52.002;5.956;2023-05-10T03:40:46;15.90;;;8.07;;
39044;SDS011;52192;52.002;5.956;2023-05-10T03:43:11;17.08;;;6.80;;
39044;SDS011;52192;52.002;5.956;2023-05-10T03:45:37;17.38;;;8.45;;
39044;SDS011;52192;52.002;5.956;2023-05-10T03:48:03;14.10;;;9.05;;
39044;SDS011;52192;52.002;5.956;2023-05-10T03:50:28;17.80;;;7.53;;
39044;SDS011;52192;52.002;5.956;2023-05-10T03:52:54;19.52;;;9.60;;
39044;SDS011;52192;52.002;5.956;2023-05-10T03:55:20;15.57;;;8.32;;
39044;SDS011;52192;52.002;5.956;2023-05-10T03:57:47;13.88;;;8.05;;
39044;SDS011;52192;52.002;5.956;2023-05-10T04:00:14;14.65;;;8.95;;
39044;SDS011;52192;52.002;5.956;2023-05-10T04:02:40;20.90;;;10.00;;
39044;SDS011;52192;52.002;5.956;2023-05-10T04:05:06;19.00;;;9.98;;
39044;SDS011;52192;52.002;5.956;2023-05-10T04:07:32;18.75;;;8.77;;
39044;SDS011;52192;52.002;5.956;2023-05-10T04:09:58;22.63;;;10.35;;
39044;SDS011;52192;52.002;5.956;2023-05-10T04:12:24;18.45;;;9.07;;
39044;SDS011;52192;52.002;5.956;2023-05-10T04:14:49;20.05;;;9.82;;
39044;SDS011;52192;52.002;5.956;2023-05-10T04:17:16;19.80;;;10.40;;
39044;SDS011;52192;52.002;5.956;2023-05-10T04:19:41;19.80;;;9.07;;
39044;SDS011;52192;52.002;5.956;2023-05-10T04:22:07;17.65;;;8.65;;
39044;SDS011;52192;52.002;5.956;2023-05-10T04:24:33;17.85;;;9.13;;
39044;SDS011;52192;52.002;5.956;2023-05-10T04:26:59;17.30;;;8.30;;
39044;SDS011;52192;52.002;5.956;2023-05-10T04:29:25;13.13;;;7.93;;
39044;SDS011;52192;52.002;5.956;2023-05-10T04:31:51;14.57;;;7.68;;
39044;SDS011;52192;52.002;5.956;2023-05-10T04:34:19;11.00;;;7.40;;
39044;SDS011;52192;52.002;5.956;2023-05-10T04:36:45;12.55;;;5.88;;
39044;SDS011;52192;52.002;5.956;2023-05-10T04:39:11;12.38;;;6.50;;
39044;SDS011;52192;52.002;5.956;2023-05-10T04:41:37;15.65;;;7.68;;
39044;SDS011;52192;52.002;5.956;2023-05-10T04:44:03;15.80;;;7.97;;
39044;SDS011;52192;52.002;5.956;2023-05-10T04:46:29;12.93;;;7.72;;
39044;SDS011;52192;52.002;5.956;2023-05-10T04:48:54;12.10;;;7.22;;
39044;SDS011;52192;52.002;5.956;2023-05-10T04:51:20;21.15;;;9.60;;
39044;SDS011;52192;52.002;5.956;2023-05-10T04:53:46;17.55;;;8.27;;
39044;SDS011;52192;52.002;5.956;2023-05-10T04:56:11;14.77;;;8.52;;
39044;SDS011;52192;52.002;5.956;2023-05-10T04:58:37;10.52;;;6.35;;
39044;SDS011;52192;52.002;5.956;2023-05-10T05:01:06;12.85;;;6.70;;
39044;SDS011;52192;52.002;5.956;2023-05-10T05:03:33;13.95;;;6.93;;
39044;SDS011;52192;52.002;5.956;2023-05-10T05:05:59;12.38;;;6.43;;
39044;SDS011;52192;52.002;5.956;2023-05-10T05:08:24;15.30;;;6.90;;
39044;SDS011;52192;52.002;5.956;2023-05-10T05:10:50;16.10;;;7.28;;
39044;SDS011;52192;52.002;5.956;2023-05-10T05:13:16;13.43;;;6.82;;
39044;SDS011;52192;52.002;5.956;2023-05-10T05:15:41;11.73;;;6.80;;
39044;SDS011;52192;52.002;5.956;2023-05-10T05:18:07;10.98;;;5.88;;
39044;SDS011;52192;52.002;5.956;2023-05-10T05:20:33;9.23;;;5.68;;
39044;SDS011;52192;52.002;5.956;2023-05-10T05:22:59;17.15;;;6.82;;
39044;SDS011;52192;52.002;5.956;2023-05-10T05:25:25;15.98;;;8.02;;
39044;SDS011;52192;52.002;5.956;2023-05-10T05:27:51;15.77;;;7.65;;
39044;SDS011;52192;52.002;5.956;2023-05-10T05:30:16;13.20;;;6.70;;
39044;SDS011;52192;52.002;5.956;2023-05-10T05:32:42;13.73;;;6.43;;
39044;SDS011;52192;52.002;5.956;2023-05-10T05:35:08;12.63;;;6.97;;
39044;SDS011;52192;52.002;5.956;2023-05-10T05:37:33;13.07;;;6.22;;
39044;SDS011;52192;52.002;5.956;2023-05-10T05:40:00;11.43;;;5.75;;
39044;SDS011;52192;52.002;5.956;2023-05-10T05:42:26;13.63;;;6.65;;
39044;SDS011;52192;52.002;5.956;2023-05-10T05:44:52;12.55;;;7.38;;
39044;SDS011;52192;52.002;5.956;2023-05-10T05:47:18;15.02;;;7.03;;
39044;SDS011;52192;52.002;5.956;2023-05-10T05:49:43;14.15;;;6.65;;
39044;SDS011;52192;52.002;5.956;2023-05-10T05:52:12;12.15;;;6.85;;
39044;SDS011;52192;52.002;5.956;2023-05-10T05:54:38;10.07;;;5.78;;
39044;SDS011;52192;52.002;5.956;2023-05-10T05:57:04;17.75;;;7.30;;
39044;SDS011;52192;52.002;5.956;2023-05-10T05:59:30;11.70;;;5.93;;
39044;SDS011;52192;52.002;5.956;2023-05-10T06:01:56;12.77;;;7.70;;
39044;SDS011;52192;52.002;5.956;2023-05-10T06:04:22;17.02;;;5.50;;
39044;SDS011;52192;52.002;5.956;2023-05-10T06:06:47;12.13;;;6.95;;
39044;SDS011;52192;52.002;5.956;2023-05-10T06:09:13;11.38;;;6.32;;
39044;SDS011;52192;52.002;5.956;2023-05-10T06:11:39;14.27;;;6.97;;
39044;SDS011;52192;52.002;5.956;2023-05-10T06:14:05;14.48;;;6.63;;
39044;SDS011;52192;52.002;5.956;2023-05-10T06:16:32;16.10;;;8.25;;
39044;SDS011;52192;52.002;5.956;2023-05-10T06:18:59;15.13;;;6.85;;
39044;SDS011;52192;52.002;5.956;2023-05-10T06:21:24;16.30;;;7.32;;
39044;SDS011;52192;52.002;5.956;2023-05-10T06:23:50;9.00;;;5.00;;
39044;SDS011;52192;52.002;5.956;2023-05-10T06:26:16;12.65;;;6.72;;
39044;SDS011;52192;52.002;5.956;2023-05-10T06:28:42;18.27;;;6.60;;
39044;SDS011;52192;52.002;5.956;2023-05-10T06:31:07;11.35;;;6.55;;
39044;SDS011;52192;52.002;5.956;2023-05-10T06:33:33;18.42;;;8.52;;
39044;SDS011;52192;52.002;5.956;2023-05-10T06:35:59;12.80;;;6.20;;
39044;SDS011;52192;52.002;5.956;2023-05-10T06:38:25;17.35;;;8.05;;
39044;SDS011;52192;52.002;5.956;2023-05-10T06:40:51;18.23;;;7.43;;
39044;SDS011;52192;52.002;5.956;2023-05-10T06:43:16;16.02;;;6.30;;
39044;SDS011;52192;52.002;5.956;2023-05-10T06:45:42;10.25;;;6.00;;
39044;SDS011;52192;52.002;5.956;2023-05-10T06:48:08;15.65;;;7.63;;
39044;SDS011;52192;52.002;5.956;2023-05-10T06:50:34;17.20;;;7.85;;
39044;SDS011;52192;52.002;5.956;2023-05-10T06:53:00;12.48;;;7.30;;
39044;SDS011;52192;52.002;5.956;2023-05-10T06:55:26;18.63;;;8.45;;
39044;SDS011;52192;52.002;5.956;2023-05-10T06:57:53;14.20;;;7.38;;
39044;SDS011;52192;52.002;5.956;2023-05-10T07:00:19;13.07;;;6.82;;
39044;SDS011;52192;52.002;5.956;2023-05-10T07:02:45;17.92;;;8.15;;
39044;SDS011;52192;52.002;5.956;2023-05-10T07:05:11;13.90;;;7.50;;
39044;SDS011;52192;52.002;5.956;2023-05-10T07:07:37;11.38;;;6.93;;
39044;SDS011;52192;52.002;5.956;2023-05-10T07:10:03;12.70;;;7.57;;
39044;SDS011;52192;52.002;5.956;2023-05-10T07:12:30;11.38;;;6.22;;
39044;SDS011;52192;52.002;5.956;2023-05-10T07:14:56;11.40;;;6.80;;
39044;SDS011;52192;52.002;5.956;2023-05-10T07:17:22;9.30;;;5.47;;
39044;SDS011;52192;52.002;5.956;2023-05-10T07:19:47;13.63;;;7.30;;
39044;SDS011;52192;52.002;5.956;2023-05-10T07:22:13;18.40;;;7.32;;
39044;SDS011;52192;52.002;5.956;2023-05-10T07:24:40;13.63;;;6.10;;
39044;SDS011;52192;52.002;5.956;2023-05-10T07:27:06;12.35;;;5.65;;
39044;SDS011;52192;52.002;5.956;2023-05-10T07:29:31;10.35;;;6.85;;
39044;SDS011;52192;52.002;5.956;2023-05-10T07:31:57;16.95;;;7.13;;
39044;SDS011;52192;52.002;5.956;2023-05-10T07:34:23;12.38;;;6.32;;
39044;SDS011;52192;52.002;5.956;2023-05-10T07:36:49;13.70;;;7.43;;
39044;SDS011;52192;52.002;5.956;2023-05-10T07:39:14;9.63;;;6.35;;
39044;SDS011;52192;52.002;5.956;2023-05-10T07:41:40;14.73;;;7.20;;
39044;SDS011;52192;52.002;5.956;2023-05-10T07:44:06;13.73;;;6.53;;
39044;SDS011;52192;52.002;5.956;2023-05-10T07:46:32;12.35;;;6.90;;
39044;SDS011;52192;52.002;5.956;2023-05-10T07:48:57;14.10;;;5.88;;
39044;SDS011;52192;52.002;5.956;2023-05-10T07:51:23;11.98;;;6.40;;
39044;SDS011;52192;52.002;5.956;2023-05-10T07:53:49;10.95;;;6.20;;
39044;SDS011;52192;52.002;5.956;2023-05-10T07:56:22;13.15;;;6.00;;
39044;SDS011;52192;52.002;5.956;2023-05-10T07:58:50;17.08;;;7.80;;
39044;SDS011;52192;52.002;5.956;2023-05-10T08:01:16;16.05;;;8.50;;
39044;SDS011;52192;52.002;5.956;2023-05-10T08:03:41;12.23;;;7.35;;
39044;SDS011;52192;52.002;5.956;2023-05-10T08:06:07;15.73;;;7.88;;
39044;SDS011;52192;52.002;5.956;2023-05-10T08:08:33;14.30;;;5.35;;
39044;SDS011;52192;52.002;5.956;2023-05-10T08:10:58;9.60;;;6.50;;
39044;SDS011;52192;52.002;5.956;2023-05-10T08:13:24;15.57;;;7.63;;
39044;SDS011;52192;52.002;5.956;2023-05-10T08:15:50;13.30;;;6.72;;
39044;SDS011;52192;52.002;5.956;2023-05-10T08:18:18;13.02;;;5.82;;
39044;SDS011;52192;52.002;5.956;2023-05-10T08:20:44;12.57;;;5.90;;
39044;SDS011;52192;52.002;5.956;2023-05-10T08:23:10;16.67;;;8.05;;
39044;SDS011;52192;52.002;5.956;2023-05-10T08:25:37;12.25;;;5.63;;
39044;SDS011;52192;52.002;5.956;2023-05-10T08:28:03;10.15;;;5.93;;
39044;SDS011;52192;52.002;5.956;2023-05-10T08:30:28;12.32;;;5.25;;
39044;SDS011;52192;52.002;5.956;2023-05-10T08:32:54;8.80;;;4.93;;
39044;SDS011;52192;52.002;5.956;2023-05-10T08:35:20;24.85;;;6.00;;
39044;SDS011;52192;52.002;5.956;2023-05-10T08:37:45;12.85;;;5.38;;
39044;SDS011;52192;52.002;5.956;2023-05-10T08:40:11;12.68;;;6.65;;
39044;SDS011;52192;52.002;5.956;2023-05-10T08:42:38;11.82;;;4.82;;
39044;SDS011;52192;52.002;5.956;2023-05-10T08:45:06;9.32;;;4.85;;
39044;SDS011;52192;52.002;5.956;2023-05-10T08:47:34;12.75;;;6.38;;
39044;SDS011;52192;52.002;5.956;2023-05-10T08:50:02;13.80;;;6.00;;
39044;SDS011;52192;52.002;5.956;2023-05-10T08:52:30;14.20;;;5.70;;
39044;SDS011;52192;52.002;5.956;2023-05-10T08:54:57;11.05;;;5.68;;
39044;SDS011;52192;52.002;5.956;2023-05-10T08:57:23;9.32;;;4.18;;
39044;SDS011;52192;52.002;5.956;2023-05-10T08:59:49;6.97;;;4.43;;
39044;SDS011;52192;52.002;5.956;2023-05-10T09:02:15;6.95;;;4.32;;
39044;SDS011;52192;52.002;5.956;2023-05-10T09:04:43;7.50;;;4.03;;
39044;SDS011;52192;52.002;5.956;2023-05-10T09:07:09;5.75;;;2.92;;
39044;SDS011;52192;52.002;5.956;2023-05-10T09:09:35;9.77;;;4.00;;
39044;SDS011;52192;52.002;5.956;2023-05-10T09:12:02;9.02;;;4.22;;
39044;SDS011;52192;52.002;5.956;2023-05-10T09:14:28;8.48;;;4.38;;
39044;SDS011;52192;52.002;5.956;2023-05-10T09:16:55;7.05;;;4.05;;
39044;SDS011;52192;52.002;5.956;2023-05-10T09:19:21;6.47;;;4.75;;
39044;SDS011;52192;52.002;5.956;2023-05-10T09:21:47;9.10;;;4.68;;
39044;SDS011;52192;52.002;5.956;2023-05-10T09:24:14;11.45;;;4.05;;
39044;SDS011;52192;52.002;5.956;2023-05-10T09:26:46;6.80;;;3.72;;
39044;SDS011;52192;52.002;5.956;2023-05-10T09:29:13;8.25;;;3.83;;
39044;SDS011;52192;52.002;5.956;2023-05-10T09:31:49;5.88;;;2.92;;
39044;SDS011;52192;52.002;5.956;2023-05-10T09:34:21;6.97;;;3.08;;
39044;SDS011;52192;52.002;5.956;2023-05-10T09:37:01;6.03;;;3.05;;
39044;SDS011;52192;52.002;5.956;2023-05-10T09:39:32;4.75;;;2.70;;
39044;SDS011;52192;52.002;5.956;2023-05-10T09:41:59;5.18;;;2.85;;
39044;SDS011;52192;52.002;5.956;2023-05-10T09:44:34;2.63;;;1.63;;
39044;SDS011;52192;52.002;5.956;2023-05-10T09:47:01;4.85;;;2.53;;
39044;SDS011;52192;52.002;5.956;2023-05-10T09:49:27;3.90;;;2.40;;
39044;SDS011;52192;52.002;5.956;2023-05-10T09:52:03;3.85;;;2.08;;
39044;SDS011;52192;52.002;5.956;2023-05-10T09:54:29;3.67;;;2.25;;
39044;SDS011;52192;52.002;5.956;2023-05-10T09:56:55;2.25;;;1.67;;
39044;SDS011;52192;52.002;5.956;2023-05-10T09:59:21;4.32;;;2.63;;
39044;SDS011;52192;52.002;5.956;2023-05-10T10:01:51;2.67;;;1.92;;
39044;SDS011;52192;52.002;5.956;2023-05-10T10:04:17;3.42;;;1.85;;
39044;SDS011;52192;52.002;5.956;2023-05-10T10:06:44;4.82;;;2.05;;
39044;SDS011;52192;52.002;5.956;2023-05-10T10:09:10;3.92;;;2.58;;
39044;SDS011;52192;52.002;5.956;2023-05-10T10:11:36;4.22;;;2.42;;
39044;SDS011;52192;52.002;5.956;2023-05-10T10:14:03;4.65;;;2.30;;
39044;SDS011;52192;52.002;5.956;2023-05-10T10:16:30;4.78;;;2.17;;
39044;SDS011;52192;52.002;5.956;2023-05-10T10:18:56;3.22;;;1.90;;
39044;SDS011;52192;52.002;5.956;2023-05-10T10:21:22;4.43;;;1.85;;
39044;SDS011;52192;52.002;5.956;2023-05-10T10:23:49;4.20;;;2.08;;
39044;SDS011;52192;52.002;5.956;2023-05-10T10:26:15;3.83;;;2.28;;
39044;SDS011;52192;52.002;5.956;2023-05-10T10:31:21;5.18;;;2.42;;
39044;SDS011;52192;52.002;5.956;2023-05-10T10:33:56;2.97;;;1.95;;
39044;SDS011;52192;52.002;5.956;2023-05-10T10:36:42;4.07;;;2.10;;
39044;SDS011;52192;52.002;5.956;2023-05-10T10:39:10;2.78;;;1.60;;
39044;SDS011;52192;52.002;5.956;2023-05-10T10:41:38;5.18;;;2.30;;
39044;SDS011;52192;52.002;5.956;2023-05-10T10:49:53;4.30;;;2.40;;
39044;SDS011;52192;52.002;5.956;2023-05-10T10:52:27;3.45;;;2.22;;
39044;SDS011;52192;52.002;5.956;2023-05-10T11:02:54;3.53;;;2.08;;
39044;SDS011;52192;52.002;5.956;2023-05-10T11:05:26;5.20;;;2.28;;
39044;SDS011;52192;52.002;5.956;2023-05-10T11:08:06;2.65;;;2.00;;
39044;SDS011;52192;52.002;5.956;2023-05-10T11:10:32;2.87;;;1.83;;
39044;SDS011;52192;52.002;5.956;2023-05-10T11:13:05;4.47;;;1.98;;
39044;SDS011;52192;52.002;5.956;2023-05-10T11:18:18;6.28;;;3.20;;
39044;SDS011;52192;52.002;5.956;2023-05-10T11:21:03;10.60;;;3.38;;
39044;SDS011;52192;52.002;5.956;2023-05-10T11:23:32;5.47;;;2.78;;
39044;SDS011;52192;52.002;5.956;2023-05-10T11:26:06;5.70;;;2.63;;
39044;SDS011;52192;52.002;5.956;2023-05-10T11:28:41;4.38;;;2.47;;
39044;SDS011;52192;52.002;5.956;2023-05-10T11:31:10;3.70;;;2.33;;
39044;SDS011;52192;52.002;5.956;2023-05-10T11:33:43;2.60;;;2.03;;
39044;SDS011;52192;52.002;5.956;2023-05-10T11:36:16;4.25;;;2.25;;
39044;SDS011;52192;52.002;5.956;2023-05-10T11:38:46;4.15;;;2.17;;
39044;SDS011;52192;52.002;5.956;2023-05-10T11:41:13;3.55;;;1.90;;
39044;SDS011;52192;52.002;5.956;2023-05-10T11:43:40;5.38;;;2.83;;
39044;SDS011;52192;52.002;5.956;2023-05-10T11:46:07;1.70;;;1.60;;
39044;SDS011;52192;52.002;5.956;2023-05-10T11:48:35;4.97;;;2.40;;
39044;SDS011;52192;52.002;5.956;2023-05-10T11:51:01;2.00;;;1.80;;
39044;SDS011;52192;52.002;5.956;2023-05-10T11:53:31;4.40;;;2.15;;
39044;SDS011;52192;52.002;5.956;2023-05-10T11:56:04;2.53;;;1.77;;
39044;SDS011;52192;52.002;5.956;2023-05-10T11:58:31;3.70;;;2.20;;
39044;SDS011;52192;52.002;5.956;2023-05-10T12:01:01;4.15;;;1.70;;
39044;SDS011;52192;52.002;5.956;2023-05-10T12:03:27;3.58;;;2.13;;
39044;SDS011;52192;52.002;5.956;2023-05-10T12:05:57;5.35;;;2.00;;
39044;SDS011;52192;52.002;5.956;2023-05-10T12:08:24;3.00;;;1.80;;
39044;SDS011;52192;52.002;5.956;2023-05-10T12:10:52;1.58;;;0.95;;
39044;SDS011;52192;52.002;5.956;2023-05-10T12:13:19;3.60;;;1.98;;
39044;SDS011;52192;52.002;5.956;2023-05-10T12:15:46;3.33;;;2.00;;
39044;SDS011;52192;52.002;5.956;2023-05-10T12:18:12;1.95;;;1.65;;
39044;SDS011;52192;52.002;5.956;2023-05-10T12:20:39;1.70;;;1.33;;
39044;SDS011;52192;52.002;5.956;2023-05-10T12:23:05;4.18;;;1.40;;
39044;SDS011;52192;52.002;5.956;2023-05-10T12:25:33;3.17;;;1.52;;
39044;SDS011;52192;52.002;5.956;2023-05-10T12:28:02;2.63;;;1.70;;
39044;SDS011;52192;52.002;5.956;2023-05-10T12:30:30;2.35;;;1.23;;
39044;SDS011;52192;52.002;5.956;2023-05-10T12:35:49;3.25;;;1.63;;
39044;SDS011;52192;52.002;5.956;2023-05-10T12:38:24;1.77;;;1.23;;
39044;SDS011;52192;52.002;5.956;2023-05-10T12:40:50;2.75;;;1.67;;
39044;SDS011;52192;52.002;5.956;2023-05-10T12:43:15;2.78;;;2.08;;
39044;SDS011;52192;52.002;5.956;2023-05-10T12:45:41;2.40;;;1.58;;
39044;SDS011;52192;52.002;5.956;2023-05-10T12:48:07;2.88;;;1.70;;
39044;SDS011;52192;52.002;5.956;2023-05-10T12:50:32;1.58;;;1.10;;
39044;SDS011;52192;52.002;5.956;2023-05-10T12:52:58;2.08;;;1.30;;
39044;SDS011;52192;52.002;5.956;2023-05-10T12:55:24;3.17;;;1.45;;
39044;SDS011;52192;52.002;5.956;2023-05-10T12:57:50;1.15;;;1.05;;
39044;SDS011;52192;52.002;5.956;2023-05-10T13:00:15;4.78;;;1.10;;
39044;SDS011;52192;52.002;5.956;2023-05-10T13:02:41;1.95;;;1.20;;
39044;SDS011;52192;52.002;5.956;2023-05-10T13:05:07;3.25;;;1.25;;
39044;SDS011;52192;52.002;5.956;2023-05-10T13:07:33;2.55;;;1.30;;
39044;SDS011;52192;52.002;5.956;2023-05-10T13:09:58;1.83;;;1.30;;
39044;SDS011;52192;52.002;5.956;2023-05-10T13:12:24;1.35;;;1.25;;
39044;SDS011;52192;52.002;5.956;2023-05-10T13:14:50;3.17;;;1.70;;
39044;SDS011;52192;52.002;5.956;2023-05-10T13:17:15;1.60;;;0.93;;
39044;SDS011;52192;52.002;5.956;2023-05-10T13:19:41;1.55;;;1.17;;
39044;SDS011;52192;52.002;5.956;2023-05-10T13:22:06;2.45;;;1.40;;
39044;SDS011;52192;52.002;5.956;2023-05-10T13:24:33;1.23;;;1.05;;
39044;SDS011;52192;52.002;5.956;2023-05-10T13:26:59;3.47;;;1.38;;
39044;SDS011;52192;52.002;5.956;2023-05-10T13:29:24;3.60;;;1.33;;
39044;SDS011;52192;52.002;5.956;2023-05-10T13:31:50;2.65;;;1.90;;
39044;SDS011;52192;52.002;5.956;2023-05-10T13:34:16;1.92;;;1.08;;
39044;SDS011;52192;52.002;5.956;2023-05-10T13:36:45;2.15;;;1.60;;
39044;SDS011;52192;52.002;5.956;2023-05-10T13:39:11;3.08;;;1.40;;
39044;SDS011;52192;52.002;5.956;2023-05-10T13:41:37;3.28;;;1.42;;
39044;SDS011;52192;52.002;5.956;2023-05-10T13:44:03;1.52;;;1.13;;
39044;SDS011;52192;52.002;5.956;2023-05-10T13:46:29;4.63;;;1.58;;
39044;SDS011;52192;52.002;5.956;2023-05-10T13:48:55;1.60;;;1.20;;
39044;SDS011;52192;52.002;5.956;2023-05-10T13:51:21;2.03;;;1.10;;
39044;SDS011;52192;52.002;5.956;2023-05-10T13:53:47;2.03;;;1.48;;
39044;SDS011;52192;52.002;5.956;2023-05-10T13:56:13;1.35;;;1.25;;
39044;SDS011;52192;52.002;5.956;2023-05-10T13:58:39;1.48;;;1.00;;
39044;SDS011;52192;52.002;5.956;2023-05-10T14:01:05;4.97;;;1.85;;
39044;SDS011;52192;52.002;5.956;2023-05-10T14:03:31;2.35;;;1.67;;
39044;SDS011;52192;52.002;5.956;2023-05-10T14:05:57;3.78;;;2.22;;
39044;SDS011;52192;52.002;5.956;2023-05-10T14:08:23;2.67;;;1.73;;
39044;SDS011;52192;52.002;5.956;2023-05-10T14:10:49;3.72;;;2.70;;
39044;SDS011;52192;52.002;5.956;2023-05-10T14:13:15;9.07;;;2.40;;
39044;SDS011;52192;52.002;5.956;2023-05-10T14:15:41;4.00;;;2.78;;
39044;SDS011;52192;52.002;5.956;2023-05-10T14:18:07;2.67;;;1.80;;
39044;SDS011;52192;52.002;5.956;2023-05-10T14:20:32;3.22;;;1.85;;
39044;SDS011;52192;52.002;5.956;2023-05-10T14:22:59;2.35;;;2.00;;
39044;SDS011;52192;52.002;5.956;2023-05-10T14:25:25;2.47;;;2.15;;
39044;SDS011;52192;52.002;5.956;2023-05-10T14:27:51;2.70;;;1.65;;
39044;SDS011;52192;52.002;5.956;2023-05-10T14:30:19;2.03;;;1.80;;
39044;SDS011;52192;52.002;5.956;2023-05-10T14:32:45;1.70;;;1.20;;
39044;SDS011;52192;52.002;5.956;2023-05-10T14:35:11;2.17;;;1.75;;
39044;SDS011;52192;52.002;5.956;2023-05-10T14:37:37;1.88;;;1.40;;
39044;SDS011;52192;52.002;5.956;2023-05-10T14:40:03;2.00;;;1.58;;
39044;SDS011;52192;52.002;5.956;2023-05-10T14:42:31;2.38;;;1.67;;
39044;SDS011;52192;52.002;5.956;2023-05-10T14:44:57;3.72;;;2.38;;
39044;SDS011;52192;52.002;5.956;2023-05-10T14:47:22;4.07;;;2.20;;
39044;SDS011;52192;52.002;5.956;2023-05-10T14:49:48;2.35;;;1.95;;
39044;SDS011;52192;52.002;5.956;2023-05-10T14:52:14;2.55;;;1.52;;
39044;SDS011;52192;52.002;5.956;2023-05-10T14:54:40;2.50;;;1.30;;
39044;SDS011;52192;52.002;5.956;2023-05-10T14:57:06;1.77;;;1.45;;
39044;SDS011;52192;52.002;5.956;2023-05-10T14:59:32;1.77;;;1.48;;
39044;SDS011;52192;52.002;5.956;2023-05-10T15:01:58;2.13;;;1.92;;
39044;SDS011;52192;52.002;5.956;2023-05-10T15:04:24;2.13;;;1.40;;
39044;SDS011;52192;52.002;5.956;2023-05-10T15:06:49;1.38;;;1.25;;
39044;SDS011;52192;52.002;5.956;2023-05-10T15:09:15;1.52;;;1.40;;
39044;SDS011;52192;52.002;5.956;2023-05-10T15:11:41;1.15;;;1.02;;
39044;SDS011;52192;52.002;5.956;2023-05-10T15:14:07;1.17;;;0.98;;
39044;SDS011;52192;52.002;5.956;2023-05-10T15:16:33;2.28;;;1.10;;
39044;SDS011;52192;52.002;5.956;2023-05-10T15:18:58;1.73;;;1.00;;
39044;SDS011;52192;52.002;5.956;2023-05-10T15:21:24;1.00;;;0.88;;